Time;durP1;ratioP1;P1;durP2;ratioP2;P2;SDS_P1;SDS_P2;PMS_P1;PMS_P2;Temp;Humidity;BMP_temperature;BMP_pressure;BME280_temperature;BME280_humidity;BME280_pressure;Samples;Min_cycle;Max_cycle;Signal;HPM_P1;HPM_P2
2023/04/24 00:05:19;;;;;;;0.87;0.70;;;;;;;;;;4966558;28;20202;-39
2023/04/24 00:08:20;;;;;;;0.77;0.77;;;;;;;;;;5014392;28;20202;-34
2023/04/24 00:11:22;;;;;;;0.70;0.70;;;;;;;;;;5015221;28;20213;-34
2023/04/24 00:14:29;;;;;;;1.67;0.80;;;;;;;;;;5025443;28;20591;-35
2023/04/24 00:17:23;;;;;;;0.80;0.80;;;;;;;;;;5028576;28;20233;-38
2023/04/24 00:23:13;;;;;;;0.70;0.70;;;;;;;;;;5034490;28;20217;-37
2023/04/24 00:36:52;;;;;;;0.83;0.83;;;;;;;;;;5062791;28;20227;-25
2023/04/24 00:39:33;;;;;;;0.60;0.60;;;;;;;;;;5088695;28;20262;-30
2023/04/24 00:45:52;;;;;;;0.80;0.80;;;;;;;;;;5037253;28;20202;-30
2023/04/24 00:52:07;;;;;;;1.30;1.00;;;;;;;;;;5031896;28;20344;-29
2023/04/24 00:55:02;;;;;;;0.60;0.60;;;;;;;;;;5036881;28;20240;-30
2023/04/24 00:57:46;;;;;;;0.67;0.60;;;;;;;;;;5035639;28;20262;-30
2023/04/24 01:00:27;;;;;;;1.00;0.90;;;;;;;;;;5050714;28;20284;-29
2023/04/24 01:03:03;;;;;;;1.77;0.90;;;;;;;;;;5044841;28;20500;-31
2023/04/24 01:11:32;;;;;;;0.60;0.60;;;;;;;;;;5030664;28;20230;-35
2023/04/24 01:20:05;;;;;;;1.63;0.97;;;;;;;;;;5011067;28;20209;-36
2023/04/24 01:23:11;;;;;;;1.73;0.90;;;;;;;;;;5013002;28;20204;-35
2023/04/24 01:25:58;;;;;;;0.63;0.63;;;;;;;;;;5003502;28;20244;-36
2023/04/24 01:28:39;;;;;;;1.60;0.80;;;;;;;;;;5008376;28;20207;-32
2023/04/24 01:31:25;;;;;;;3.10;0.90;;;;;;;;;;5006883;28;20209;-36
2023/04/24 01:34:18;;;;;;;0.77;0.77;;;;;;;;;;5010124;28;20225;-37
2023/04/24 01:37:07;;;;;;;2.33;0.90;;;;;;;;;;5012244;28;20293;-36
2023/04/24 01:42:38;;;;;;;0.67;0.67;;;;;;;;;;5006789;28;20207;-37
2023/04/24 01:48:27;;;;;;;0.83;0.83;;;;;;;;;;5010602;28;20199;-37
2023/04/24 02:02:58;;;;;;;1.37;0.50;;;;;;;;;;5003391;28;20307;-35
2023/04/24 02:05:41;;;;;;;0.93;0.67;;;;;;;;;;5012319;28;20212;-35
2023/04/24 02:16:13;;;;;;;1.03;0.70;;;;;;;;;;5027254;28;20249;-30
2023/04/24 02:18:49;;;;;;;1.97;0.90;;;;;;;;;;5038234;28;20229;-28
2023/04/24 02:32:15;;;;;;;1.47;0.70;;;;;;;;;;5068735;28;20222;-31
2023/04/24 02:37:54;;;;;;;0.90;0.90;;;;;;;;;;5046486;28;20299;-27
2023/04/24 02:41:06;;;;;;;0.70;0.70;;;;;;;;;;5050832;28;20206;-29
2023/04/24 02:43:47;;;;;;;0.90;0.90;;;;;;;;;;5051633;28;20225;-28
2023/04/24 02:46:32;;;;;;;2.90;1.03;;;;;;;;;;5043899;28;20198;-30
2023/04/24 02:49:27;;;;;;;1.70;0.70;;;;;;;;;;5058141;28;20206;-30
2023/04/24 02:52:10;;;;;;;0.80;0.80;;;;;;;;;;5047131;28;20533;-29
2023/04/24 02:57:39;;;;;;;0.97;0.97;;;;;;;;;;5050983;28;20233;-31
2023/04/24 03:03:09;;;;;;;1.13;1.03;;;;;;;;;;5047493;28;20283;-31
2023/04/24 03:14:32;;;;;;;2.63;1.03;;;;;;;;;;4984586;28;20260;-37
2023/04/24 03:25:03;;;;;;;0.90;0.90;;;;;;;;;;5086801;23;20237;-27
2023/04/24 03:33:51;;;;;;;0.87;0.87;;;;;;;;;;5055140;28;20248;-30
2023/04/24 03:36:36;;;;;;;2.10;0.80;;;;;;;;;;5046230;28;20209;-31
2023/04/24 03:44:28;;;;;;;1.87;0.90;;;;;;;;;;5051992;28;20232;-29
2023/04/24 03:47:24;;;;;;;1.37;0.87;;;;;;;;;;5036527;28;20420;-29
2023/04/24 03:50:27;;;;;;;0.80;0.80;;;;;;;;;;5042671;28;20269;-29
2023/04/24 03:55:50;;;;;;;0.90;0.90;;;;;;;;;;5071093;28;20205;-29
2023/04/24 03:58:35;;;;;;;0.70;0.70;;;;;;;;;;5047058;28;20226;-27
2023/04/24 04:01:11;;;;;;;0.87;0.87;;;;;;;;;;5045894;28;20199;-29
2023/04/24 04:15:12;;;;;;;3.23;0.60;;;;;;;;;;5045723;28;20253;-35
2023/04/24 04:18:07;;;;;;;0.73;0.67;;;;;;;;;;5038430;28;20850;-34
2023/04/24 04:21:26;;;;;;;0.80;0.60;;;;;;;;;;5054376;28;20490;-38
2023/04/24 04:27:01;;;;;;;1.30;1.00;;;;;;;;;;5044383;28;20210;-35
2023/04/24 04:29:51;;;;;;;0.70;0.70;;;;;;;;;;5053858;28;20198;-36
2023/04/24 04:35:15;;;;;;;0.60;0.60;;;;;;;;;;5046328;28;20313;-36
2023/04/24 04:38:18;;;;;;;1.30;1.00;;;;;;;;;;5021099;28;20290;-38
2023/04/24 04:44:31;;;;;;;1.10;0.70;;;;;;;;;;5055432;28;20249;-37
2023/04/24 04:58:21;;;;;;;1.17;0.80;;;;;;;;;;5062893;28;20319;-33
2023/04/24 05:01:02;;;;;;;1.77;1.10;;;;;;;;;;5053280;28;20206;-39
2023/04/24 05:03:48;;;;;;;1.30;0.80;;;;;;;;;;5058320;28;20225;-40
2023/04/24 05:06:55;;;;;;;2.17;0.93;;;;;;;;;;5047832;28;20220;-36
2023/04/24 05:09:51;;;;;;;0.70;0.70;;;;;;;;;;5032475;28;20203;-33
2023/04/24 05:16:14;;;;;;;1.80;0.70;;;;;;;;;;5022029;28;20214;-37
2023/04/24 05:18:51;;;;;;;3.47;1.10;;;;;;;;;;5039530;28;20235;-38
2023/04/24 05:21:29;;;;;;;0.80;0.60;;;;;;;;;;5038268;28;20194;-37
2023/04/24 05:24:17;;;;;;;0.80;0.80;;;;;;;;;;5032774;28;20245;-32
2023/04/24 05:27:05;;;;;;;1.37;0.80;;;;;;;;;;5035946;28;20212;-38
2023/04/24 05:29:44;;;;;;;0.63;0.63;;;;;;;;;;5036051;28;20260;-32
2023/04/24 05:32:26;;;;;;;0.77;0.60;;;;;;;;;;5048496;28;20213;-40
2023/04/24 05:35:07;;;;;;;1.60;0.80;;;;;;;;;;5040553;28;20230;-36
2023/04/24 05:45:37;;;;;;;1.73;0.90;;;;;;;;;;5050674;28;20218;-30
2023/04/24 05:54:29;;;;;;;0.80;0.80;;;;;;;;;;5011827;28;20579;-27
2023/04/24 05:57:04;;;;;;;0.60;0.60;;;;;;;;;;5016607;28;20210;-29
2023/04/24 05:59:41;;;;;;;1.20;0.67;;;;;;;;;;5025585;28;20222;-30
2023/04/24 06:02:17;;;;;;;1.63;0.80;;;;;;;;;;5029701;28;20195;-28
2023/04/24 06:04:52;;;;;;;0.90;0.90;;;;;;;;;;5031231;28;20256;-29
2023/04/24 06:07:33;;;;;;;2.17;0.77;;;;;;;;;;5031408;28;20206;-27
2023/04/24 06:10:09;;;;;;;0.83;0.80;;;;;;;;;;5032116;28;20206;-30
2023/04/24 06:15:50;;;;;;;0.63;0.63;;;;;;;;;;5032235;28;20243;-27
2023/04/24 06:18:50;;;;;;;0.83;0.83;;;;;;;;;;5027392;28;20234;-27
2023/04/24 06:21:33;;;;;;;2.50;1.00;;;;;;;;;;5031842;28;20690;-30
2023/04/24 06:24:31;;;;;;;1.00;0.90;;;;;;;;;;5014127;28;20227;-30
2023/04/24 06:32:13;;;;;;;0.90;0.90;;;;;;;;;;5049336;28;20217;-31
2023/04/24 06:38:09;;;;;;;0.97;0.93;;;;;;;;;;5029514;28;20206;-29
2023/04/24 06:45:58;;;;;;;0.93;0.93;;;;;;;;;;5009951;28;20219;-26
2023/04/24 06:48:41;;;;;;;2.73;0.97;;;;;;;;;;5009390;28;20204;-27
2023/04/24 06:51:15;;;;;;;1.17;0.80;;;;;;;;;;5006512;28;20239;-26
2023/04/24 06:54:00;;;;;;;0.90;0.90;;;;;;;;;;5012217;28;20225;-30
2023/04/24 06:56:30;;;;;;;0.93;0.87;;;;;;;;;;5017996;28;20230;-28
2023/04/24 06:59:17;;;;;;;;;;;;;;;;;;;;;
2023/04/24 07:02:05;;;;;;;0.83;0.83;;;;;;;;;;5042146;23;20247;-28
2023/04/24 07:04:47;;;;;;;0.73;0.73;;;;;;;;;;5045707;28;20218;-30
2023/04/24 07:07:25;;;;;;;0.80;0.80;;;;;;;;;;5046441;28;20216;-27
2023/04/24 07:10:03;;;;;;;1.43;0.80;;;;;;;;;;5052250;28;20228;-29
2023/04/24 07:12:41;;;;;;;1.47;0.90;;;;;;;;;;5135396;22;20806;-28
2023/04/24 07:15:29;;;;;;;0.70;0.70;;;;;;;;;;5030847;28;20218;-28
2023/04/24 07:18:34;;;;;;;2.80;1.00;;;;;;;;;;5021668;28;20300;-27
2023/04/24 07:21:14;;;;;;;0.77;0.77;;;;;;;;;;5027951;28;20209;-29
2023/04/24 07:24:01;;;;;;;1.17;0.90;;;;;;;;;;5033824;28;20218;-30
2023/04/24 07:26:46;;;;;;;1.20;1.00;;;;;;;;;;5037221;28;20226;-28
2023/04/24 07:29:31;;;;;;;1.20;1.10;;;;;;;;;;5035022;28;20203;-30
2023/04/24 07:32:12;;;;;;;1.60;1.10;;;;;;;;;;5034190;28;20648;-29
2023/04/24 07:34:51;;;;;;;0.80;0.80;;;;;;;;;;5017549;28;20231;-27
2023/04/24 07:37:35;;;;;;;1.50;1.17;;;;;;;;;;5015680;28;20214;-27
2023/04/24 07:43:23;;;;;;;2.03;1.10;;;;;;;;;;5025313;28;20707;-27
2023/04/24 07:46:09;;;;;;;1.20;1.10;;;;;;;;;;5028463;28;20229;-29
2023/04/24 07:48:49;;;;;;;1.67;0.90;;;;;;;;;;5022946;28;20205;-27
2023/04/24 07:51:38;;;;;;;1.73;0.90;;;;;;;;;;5034730;28;20198;-32
2023/04/24 07:54:16;;;;;;;4.30;1.00;;;;;;;;;;5027358;28;20324;-31
2023/04/24 07:56:56;;;;;;;1.53;0.93;;;;;;;;;;5028293;28;20233;-31
2023/04/24 07:59:28;;;;;;;1.13;1.13;;;;;;;;;;5029528;28;20229;-32
2023/04/24 08:01:57;;;;;;;0.90;0.90;;;;;;;;;;5025215;28;20227;-29
2023/04/24 08:04:27;;;;;;;0.63;0.63;;;;;;;;;;5011472;28;20226;-34
2023/04/24 08:06:57;;;;;;;1.77;0.70;;;;;;;;;;5029774;28;20237;-28
2023/04/24 08:10:04;;;;;;;0.83;0.83;;;;;;;;;;5034004;28;20198;-29
2023/04/24 08:13:03;;;;;;;1.30;0.80;;;;;;;;;;5030849;28;20224;-30
2023/04/24 08:18:38;;;;;;;0.70;0.60;;;;;;;;;;5032164;28;20209;-30
2023/04/24 08:21:16;;;;;;;0.60;0.60;;;;;;;;;;5031791;28;20234;-29
2023/04/24 08:23:54;;;;;;;0.80;0.60;;;;;;;;;;5057117;23;20240;-29
2023/04/24 08:30:10;;;;;;;1.03;0.80;;;;;;;;;;5065166;28;20197;-31
2023/04/24 08:33:09;;;;;;;1.23;0.70;;;;;;;;;;5070938;28;20193;-35
2023/04/24 08:38:38;;;;;;;0.90;0.90;;;;;;;;;;5380160;22;20228;-28
2023/04/24 08:52:43;;;;;;;0.73;0.73;;;;;;;;;;5055583;28;20264;-28
2023/04/24 08:55:35;;;;;;;1.07;1.00;;;;;;;;;;5086626;22;20299;-29
2023/04/24 08:58:21;;;;;;;1.93;0.83;;;;;;;;;;5059329;28;20207;-30
2023/04/24 09:00:56;;;;;;;0.60;0.60;;;;;;;;;;5061053;28;20311;-31
2023/04/24 09:03:45;;;;;;;0.90;0.90;;;;;;;;;;5053480;28;20246;-30
2023/04/24 09:06:25;;;;;;;0.77;0.70;;;;;;;;;;5045198;28;20202;-31
2023/04/24 09:09:26;;;;;;;1.30;0.90;;;;;;;;;;5050629;28;20329;-28
2023/04/24 09:12:04;;;;;;;0.80;0.80;;;;;;;;;;5046288;28;20218;-28
2023/04/24 09:14:39;;;;;;;1.27;1.10;;;;;;;;;;5031816;28;20281;-25
2023/04/24 09:17:37;;;;;;;1.37;1.10;;;;;;;;;;5114631;23;20711;-28
2023/04/24 09:20:15;;;;;;;0.70;0.70;;;;;;;;;;5057179;28;20655;-27
2023/04/24 09:22:59;;;;;;;0.70;0.70;;;;;;;;;;5058189;28;20209;-26
2023/04/24 09:25:35;;;;;;;0.80;0.80;;;;;;;;;;5041684;28;20201;-29
2023/04/24 09:28:10;;;;;;;2.43;0.80;;;;;;;;;;5041790;28;20224;-27
2023/04/24 09:30:39;;;;;;;1.27;0.90;;;;;;;;;;5049399;28;20211;-28
2023/04/24 09:33:21;;;;;;;0.73;0.73;;;;;;;;;;5044865;28;20308;-27
2023/04/24 09:35:58;;;;;;;0.93;0.77;;;;;;;;;;5052722;28;20220;-28
2023/04/24 09:38:35;;;;;;;1.13;0.90;;;;;;;;;;5046755;28;20546;-29
2023/04/24 09:41:18;;;;;;;3.03;1.07;;;;;;;;;;5447962;23;20240;-31
2023/04/24 09:43:55;;;;;;;0.80;0.80;;;;;;;;;;5058210;28;20230;-29
2023/04/24 09:46:36;;;;;;;0.70;0.70;;;;;;;;;;5048124;28;20201;-29
2023/04/24 09:49:11;;;;;;;2.07;1.00;;;;;;;;;;5052213;28;20206;-27
2023/04/24 09:51:40;;;;;;;0.70;0.50;;;;;;;;;;5052282;28;20198;-28
2023/04/24 09:54:23;;;;;;;1.90;0.67;;;;;;;;;;5055373;28;20229;-28
2023/04/24 09:56:56;;;;;;;3.33;1.00;;;;;;;;;;5052041;28;20209;-29
2023/04/24 09:59:32;;;;;;;2.17;0.93;;;;;;;;;;5052755;28;20202;-27
2023/04/24 10:05:12;;;;;;;0.70;0.70;;;;;;;;;;5043219;28;20229;-29
2023/04/24 10:08:06;;;;;;;0.60;0.60;;;;;;;;;;5053321;28;20236;-30
2023/04/24 10:10:36;;;;;;;0.60;0.60;;;;;;;;;;5045161;28;20285;-29
2023/04/24 10:21:00;;;;;;;6.70;1.47;;;;;;;;;;5132533;22;20237;-28
2023/04/24 10:23:36;;;;;;;0.73;0.60;;;;;;;;;;5049124;28;20230;-28
2023/04/24 10:26:17;;;;;;;0.27;0.27;;;;;;;;;;5040616;28;20210;-26
2023/04/24 10:29:02;;;;;;;0.40;0.40;;;;;;;;;;5032663;28;20240;-29
2023/04/24 10:31:48;;;;;;;0.40;0.40;;;;;;;;;;5056809;28;20227;-28
2023/04/24 10:34:29;;;;;;;0.40;0.40;;;;;;;;;;5031238;28;20254;-27
2023/04/24 10:37:13;;;;;;;0.97;0.53;;;;;;;;;;5039331;28;20209;-30
2023/04/24 10:39:54;;;;;;;0.93;0.93;;;;;;;;;;5033966;28;20249;-27
2023/04/24 10:45:30;;;;;;;1.40;0.70;;;;;;;;;;5037696;28;20206;-28
2023/04/24 10:48:10;;;;;;;1.67;0.70;;;;;;;;;;5043762;28;20195;-31
2023/04/24 10:55:52;;;;;;;0.60;0.60;;;;;;;;;;5069714;28;20246;-28
2023/04/24 11:01:06;;;;;;;0.37;0.37;;;;;;;;;;5081631;22;20333;-41
2023/04/24 11:03:56;;;;;;;0.37;0.37;;;;;;;;;;5054260;28;20229;-43
2023/04/24 11:06:40;;;;;;;0.63;0.63;;;;;;;;;;5051929;28;20288;-36
2023/04/24 11:09:31;;;;;;;0.30;0.30;;;;;;;;;;5032204;28;20207;-35
2023/04/24 11:12:16;;;;;;;0.40;0.40;;;;;;;;;;5044229;28;20254;-36
2023/04/24 11:15:08;;;;;;;0.50;0.50;;;;;;;;;;5048627;28;20256;-40
2023/04/24 11:17:58;;;;;;;0.30;0.30;;;;;;;;;;5045761;28;20257;-34
2023/04/24 11:20:33;;;;;;;0.60;0.60;;;;;;;;;;5056192;28;20228;-38
2023/04/24 11:23:07;;;;;;;0.50;0.50;;;;;;;;;;5055702;28;20230;-35
2023/04/24 11:37:00;;;;;;;0.70;0.70;;;;;;;;;;5071453;28;20666;-38
2023/04/24 11:39:43;;;;;;;0.63;0.63;;;;;;;;;;5076344;28;20194;-38
2023/04/24 11:45:06;;;;;;;1.07;0.70;;;;;;;;;;5049045;28;20229;-38
2023/04/24 11:47:43;;;;;;;0.50;0.50;;;;;;;;;;5052087;28;20216;-36
2023/04/24 11:50:50;;;;;;;0.60;0.60;;;;;;;;;;5038098;28;20203;-39
2023/04/24 11:53:31;;;;;;;0.60;0.60;;;;;;;;;;5050261;28;20240;-37
2023/04/24 11:59:48;;;;;;;1.50;0.60;;;;;;;;;;5046644;28;20361;-32
2023/04/24 12:02:55;;;;;;;2.53;0.40;;;;;;;;;;5051784;28;20536;-41
2023/04/24 12:05:44;;;;;;;1.23;0.60;;;;;;;;;;5039054;28;20285;-36
2023/04/24 12:11:12;;;;;;;0.50;0.50;;;;;;;;;;5073857;28;20217;-37
2023/04/24 12:13:52;;;;;;;0.80;0.50;;;;;;;;;;5045749;28;20230;-38
2023/04/24 12:29:25;;;;;;;0.73;0.70;;;;;;;;;;5000999;28;20211;-26
2023/04/24 12:31:58;;;;;;;0.70;0.70;;;;;;;;;;5004187;28;20208;-25
2023/04/24 12:37:15;;;;;;;0.77;0.70;;;;;;;;;;4992308;28;20221;-28
2023/04/24 12:40:07;;;;;;;0.67;0.67;;;;;;;;;;4991756;28;20280;-28
2023/04/24 12:42:40;;;;;;;0.50;0.50;;;;;;;;;;4981494;28;20291;-26
2023/04/24 13:11:35;;;;;;;0.60;0.60;;;;;;;;;;5151701;22;20257;-37
2023/04/24 13:14:12;;;;;;;1.30;0.97;;;;;;;;;;5034104;28;20224;-36
2023/04/24 13:16:45;;;;;;;0.50;0.50;;;;;;;;;;5363187;22;20230;-36
2023/04/24 13:19:16;;;;;;;0.83;0.83;;;;;;;;;;5043991;28;20211;-39
2023/04/24 13:21:51;;;;;;;0.70;0.70;;;;;;;;;;5053946;28;20229;-33
2023/04/24 13:27:34;;;;;;;0.90;0.73;;;;;;;;;;5065485;28;20270;-29
2023/04/24 13:35:45;;;;;;;0.67;0.67;;;;;;;;;;5685616;22;20236;-35
2023/04/24 13:42:19;;;;;;;0.53;0.53;;;;;;;;;;5069014;28;20227;-37
2023/04/24 13:45:39;;;;;;;;;;;;;;;;;;;;;
2023/04/24 13:50:41;;;;;;;0.70;0.70;;;;;;;;;;5063620;28;20217;-27
2023/04/24 13:53:09;;;;;;;2.50;0.80;;;;;;;;;;5063228;28;20211;-29
2023/04/24 13:55:36;;;;;;;0.57;0.53;;;;;;;;;;5049569;28;20287;-30
2023/04/24 13:58:03;;;;;;;0.80;0.80;;;;;;;;;;5044370;28;20209;-28
2023/04/24 14:00:30;;;;;;;0.50;0.40;;;;;;;;;;5047214;28;20217;-28
2023/04/24 14:02:58;;;;;;;0.90;0.90;;;;;;;;;;5040668;28;20209;-28
2023/04/24 14:05:25;;;;;;;0.43;0.43;;;;;;;;;;5048659;28;20208;-30
2023/04/24 14:07:53;;;;;;;0.87;0.87;;;;;;;;;;5049146;28;20235;-27
2023/04/24 14:10:21;;;;;;;0.83;0.83;;;;;;;;;;5030025;28;20210;-27
2023/04/24 14:12:48;;;;;;;1.03;0.80;;;;;;;;;;5049876;28;20215;-25
2023/04/24 14:15:15;;;;;;;1.80;0.90;;;;;;;;;;5052295;28;20250;-28
2023/04/24 14:17:42;;;;;;;0.80;0.77;;;;;;;;;;5045622;28;20217;-28
2023/04/24 14:20:10;;;;;;;0.83;0.80;;;;;;;;;;5050860;28;20212;-27
2023/04/24 14:22:37;;;;;;;1.23;0.97;;;;;;;;;;5049668;28;20248;-29
2023/04/24 14:25:22;;;;;;;0.47;0.47;;;;;;;;;;5043341;28;20229;-28
2023/04/24 14:27:50;;;;;;;0.90;0.90;;;;;;;;;;5049024;28;20233;-26
2023/04/24 14:30:17;;;;;;;3.60;1.20;;;;;;;;;;5053228;28;20198;-27
2023/04/24 14:32:44;;;;;;;0.60;0.60;;;;;;;;;;5039112;28;20214;-27
2023/04/24 14:35:12;;;;;;;1.20;0.93;;;;;;;;;;5047381;28;20208;-29
2023/04/24 14:37:40;;;;;;;1.10;1.00;;;;;;;;;;5052415;28;20205;-26
2023/04/24 14:40:09;;;;;;;1.67;1.00;;;;;;;;;;5055781;28;20216;-27
2023/04/24 14:42:37;;;;;;;1.23;1.00;;;;;;;;;;5058327;28;20291;-29
2023/04/24 14:45:05;;;;;;;0.90;0.90;;;;;;;;;;5054058;28;20222;-26
2023/04/24 14:47:36;;;;;;;1.70;1.00;;;;;;;;;;5043740;28;20611;-26
2023/04/24 14:50:08;;;;;;;1.53;1.10;;;;;;;;;;5045216;28;20216;-27
2023/04/24 14:52:47;;;;;;;1.23;0.80;;;;;;;;;;5045214;28;20197;-26
2023/04/24 14:55:14;;;;;;;0.90;0.90;;;;;;;;;;5048983;28;20230;-29
2023/04/24 14:57:45;;;;;;;0.80;0.80;;;;;;;;;;5042893;28;20298;-27
2023/04/24 15:00:13;;;;;;;0.47;0.47;;;;;;;;;;5052060;28;20213;-26
2023/04/24 15:02:41;;;;;;;0.67;0.63;;;;;;;;;;5040216;28;20223;-27
2023/04/24 15:05:09;;;;;;;1.83;0.70;;;;;;;;;;5043521;28;20208;-27
2023/04/24 15:07:36;;;;;;;1.93;0.60;;;;;;;;;;5050236;28;20252;-24
2023/04/24 15:10:04;;;;;;;1.10;1.00;;;;;;;;;;5042443;28;20208;-27
2023/04/24 15:12:31;;;;;;;2.37;0.93;;;;;;;;;;5047682;28;20202;-29
2023/04/24 15:15:00;;;;;;;1.33;1.03;;;;;;;;;;5049161;28;20218;-27
2023/04/24 15:17:27;;;;;;;0.80;0.80;;;;;;;;;;5049501;28;20210;-29
2023/04/24 15:19:55;;;;;;;1.10;1.03;;;;;;;;;;5044525;28;20291;-27
2023/04/24 15:22:22;;;;;;;1.20;1.10;;;;;;;;;;5052144;28;20225;-26
2023/04/24 15:24:53;;;;;;;0.90;0.90;;;;;;;;;;5047683;28;20309;-28
2023/04/24 15:27:20;;;;;;;1.70;1.00;;;;;;;;;;5056903;28;20212;-29
2023/04/24 15:29:48;;;;;;;0.97;0.97;;;;;;;;;;5050639;28;20562;-26
2023/04/24 15:32:16;;;;;;;0.90;0.90;;;;;;;;;;5044363;28;20198;-29
2023/04/24 15:34:43;;;;;;;1.47;1.30;;;;;;;;;;5048447;28;20249;-29
2023/04/24 15:37:10;;;;;;;1.30;1.20;;;;;;;;;;5051168;28;20208;-28
2023/04/24 15:39:38;;;;;;;1.93;1.20;;;;;;;;;;5045688;28;20202;-26
2023/04/24 15:42:05;;;;;;;1.40;1.10;;;;;;;;;;5050102;28;20225;-28
2023/04/24 15:44:32;;;;;;;1.97;1.20;;;;;;;;;;5051930;28;20221;-27
2023/04/24 15:47:01;;;;;;;1.43;0.93;;;;;;;;;;5043977;28;20217;-26
2023/04/24 15:49:29;;;;;;;1.00;1.00;;;;;;;;;;5045448;28;20213;-25
2023/04/24 15:51:56;;;;;;;8.03;1.47;;;;;;;;;;5049797;28;20212;-28
2023/04/24 15:54:24;;;;;;;1.70;1.10;;;;;;;;;;5054837;28;20217;-27
2023/04/24 15:56:51;;;;;;;1.20;1.10;;;;;;;;;;5046683;28;20237;-26
2023/04/24 15:59:18;;;;;;;1.13;1.10;;;;;;;;;;5053141;28;20202;-27
2023/04/24 16:01:45;;;;;;;0.87;0.87;;;;;;;;;;5052179;28;20714;-28
2023/04/24 16:04:12;;;;;;;1.30;1.20;;;;;;;;;;5042769;28;20222;-28
2023/04/24 16:06:42;;;;;;;1.03;0.93;;;;;;;;;;5052474;28;20198;-27
2023/04/24 16:09:10;;;;;;;1.43;1.20;;;;;;;;;;5054301;28;20206;-26
2023/04/24 16:11:38;;;;;;;0.93;0.83;;;;;;;;;;5045425;28;20217;-29
2023/04/24 16:14:05;;;;;;;5.77;1.20;;;;;;;;;;5053588;28;20226;-27
2023/04/24 16:16:38;;;;;;;0.70;0.70;;;;;;;;;;5051408;28;20298;-28
2023/04/24 16:19:05;;;;;;;1.67;1.20;;;;;;;;;;5046354;28;20214;-26
2023/04/24 16:21:32;;;;;;;0.87;0.87;;;;;;;;;;5050709;28;20249;-27
2023/04/24 16:24:01;;;;;;;1.27;1.07;;;;;;;;;;5054230;28;20229;-28
2023/04/24 16:26:28;;;;;;;1.10;0.93;;;;;;;;;;5040859;28;20204;-27
2023/04/24 16:28:55;;;;;;;1.40;1.00;;;;;;;;;;5054484;28;20205;-31
2023/04/24 16:31:22;;;;;;;1.47;1.10;;;;;;;;;;5053614;28;20202;-27
2023/04/24 16:33:50;;;;;;;2.03;1.83;;;;;;;;;;5046213;28;20237;-29
2023/04/24 16:36:17;;;;;;;1.17;1.10;;;;;;;;;;5053809;28;20286;-26
2023/04/24 16:38:44;;;;;;;2.17;1.47;;;;;;;;;;5053751;28;20208;-29
2023/04/24 16:41:12;;;;;;;2.10;1.50;;;;;;;;;;5044314;28;20215;-28
2023/04/24 16:43:40;;;;;;;2.23;1.17;;;;;;;;;;5050282;28;20221;-27
2023/04/24 16:46:07;;;;;;;1.13;1.03;;;;;;;;;;5046018;28;20261;-28
2023/04/24 16:48:37;;;;;;;1.90;1.13;;;;;;;;;;5044703;28;20207;-29
2023/04/24 16:51:05;;;;;;;1.03;1.00;;;;;;;;;;5047183;28;20666;-28
2023/04/24 16:53:32;;;;;;;1.47;1.00;;;;;;;;;;5054691;28;20220;-26
2023/04/24 16:55:59;;;;;;;0.80;0.80;;;;;;;;;;5050564;28;20202;-29
2023/04/24 16:58:27;;;;;;;2.90;1.60;;;;;;;;;;5059006;28;20210;-29
2023/04/24 17:00:55;;;;;;;4.83;3.47;;;;;;;;;;5053726;28;20206;-29
2023/04/24 17:03:22;;;;;;;4.67;3.33;;;;;;;;;;5045026;28;20237;-30
2023/04/24 17:05:49;;;;;;;2.60;2.30;;;;;;;;;;5052774;28;20214;-27
2023/04/24 17:08:16;;;;;;;1.50;1.40;;;;;;;;;;5052455;28;20203;-27
2023/04/24 17:10:43;;;;;;;1.90;1.00;;;;;;;;;;5044672;28;20236;-30
2023/04/24 17:13:10;;;;;;;2.17;1.27;;;;;;;;;;5052530;28;20229;-27
2023/04/24 17:15:39;;;;;;;1.13;1.10;;;;;;;;;;5053584;28;20216;-26
2023/04/24 17:18:06;;;;;;;1.33;1.23;;;;;;;;;;5047233;28;20228;-27
2023/04/24 17:20:33;;;;;;;1.30;1.20;;;;;;;;;;5059614;28;20205;-26
2023/04/24 17:23:00;;;;;;;1.57;1.20;;;;;;;;;;5053102;28;20241;-29
2023/04/24 17:25:28;;;;;;;1.73;1.30;;;;;;;;;;5050873;28;20221;-28
2023/04/24 17:27:55;;;;;;;1.53;1.20;;;;;;;;;;5053233;28;20201;-27
2023/04/24 17:30:22;;;;;;;1.40;1.30;;;;;;;;;;5054413;28;20213;-28
2023/04/24 17:32:51;;;;;;;1.80;1.70;;;;;;;;;;5045136;28;20587;-27
2023/04/24 17:35:18;;;;;;;1.23;1.17;;;;;;;;;;5052526;28;20210;-25
2023/04/24 17:37:46;;;;;;;0.97;0.97;;;;;;;;;;5052867;28;20236;-27
2023/04/24 17:40:13;;;;;;;1.63;1.53;;;;;;;;;;5052622;28;20204;-28
2023/04/24 17:42:41;;;;;;;1.77;1.17;;;;;;;;;;5044256;28;20280;-29
2023/04/24 17:48:13;;;;;;;1.10;0.90;;;;;;;;;;5035097;28;20254;-30
2023/04/24 17:50:40;;;;;;;1.83;1.40;;;;;;;;;;5052463;28;20214;-28
2023/04/24 17:53:07;;;;;;;1.90;1.80;;;;;;;;;;5049793;28;20226;-27
2023/04/24 17:55:35;;;;;;;1.27;1.20;;;;;;;;;;5051334;28;20204;-28
2023/04/24 17:58:03;;;;;;;1.13;1.13;;;;;;;;;;5050157;28;20201;-28
2023/04/24 18:00:30;;;;;;;1.70;1.60;;;;;;;;;;5051387;28;20206;-28
2023/04/24 18:02:59;;;;;;;1.50;1.40;;;;;;;;;;5045059;28;20254;-28
2023/04/24 18:05:28;;;;;;;1.17;1.17;;;;;;;;;;5051578;28;20198;-28
2023/04/24 18:07:56;;;;;;;1.73;1.60;;;;;;;;;;5049525;28;20229;-27
2023/04/24 18:10:23;;;;;;;4.80;4.10;;;;;;;;;;5052317;28;20205;-27
2023/04/24 18:12:50;;;;;;;3.07;2.27;;;;;;;;;;5045530;28;20202;-29
2023/04/24 18:15:18;;;;;;;60.57;35.60;;;;;;;;;;5052037;28;20208;-28
2023/04/24 18:17:45;;;;;;;15.47;13.30;;;;;;;;;;5047420;28;20210;-28
2023/04/24 18:20:13;;;;;;;15.43;13.97;;;;;;;;;;5050935;28;20202;-28
2023/04/24 18:22:42;;;;;;;4.50;3.47;;;;;;;;;;5045169;28;20317;-28
2023/04/24 18:25:10;;;;;;;3.17;2.97;;;;;;;;;;5043399;28;20224;-28
2023/04/24 18:27:37;;;;;;;1.93;1.83;;;;;;;;;;5048856;28;20203;-26
2023/04/24 18:30:05;;;;;;;1.63;1.53;;;;;;;;;;5045695;28;20205;-28
2023/04/24 18:32:33;;;;;;;1.77;1.67;;;;;;;;;;5031579;28;20202;-27
2023/04/24 18:35:00;;;;;;;1.57;1.47;;;;;;;;;;5049091;28;20218;-27
2023/04/24 18:37:27;;;;;;;1.50;1.40;;;;;;;;;;5049502;28;20202;-28
2023/04/24 18:39:56;;;;;;;3.87;1.80;;;;;;;;;;5039395;28;20246;-27
2023/04/24 18:42:23;;;;;;;1.90;1.20;;;;;;;;;;5043676;28;20225;-26
2023/04/24 18:44:50;;;;;;;1.37;1.30;;;;;;;;;;5045226;28;20224;-31
2023/04/24 18:47:17;;;;;;;1.60;1.50;;;;;;;;;;5040653;28;20203;-30
2023/04/24 18:49:44;;;;;;;1.33;1.23;;;;;;;;;;5044584;28;20245;-28
2023/04/24 18:52:12;;;;;;;1.77;1.67;;;;;;;;;;5045361;28;20204;-29
2023/04/24 18:54:39;;;;;;;1.50;1.40;;;;;;;;;;5046310;28;20225;-27
2023/04/24 18:57:08;;;;;;;1.17;1.17;;;;;;;;;;5037315;28;20234;-28
2023/04/24 18:59:35;;;;;;;1.40;1.30;;;;;;;;;;5045290;28;20213;-28
2023/04/24 19:02:02;;;;;;;2.70;1.60;;;;;;;;;;5043044;28;20469;-29
2023/04/24 19:04:29;;;;;;;1.30;1.20;;;;;;;;;;5045762;28;20229;-29
2023/04/24 19:06:56;;;;;;;1.70;1.53;;;;;;;;;;5048633;28;20321;-27
2023/04/24 19:09:24;;;;;;;1.40;1.30;;;;;;;;;;5048546;28;20297;-27
2023/04/24 19:11:51;;;;;;;1.80;1.27;;;;;;;;;;5041809;28;20206;-28
2023/04/24 19:14:21;;;;;;;1.23;1.20;;;;;;;;;;5048439;28;20309;-30
2023/04/24 19:16:48;;;;;;;1.57;1.47;;;;;;;;;;5040714;28;20213;-29
2023/04/24 19:19:16;;;;;;;1.90;1.47;;;;;;;;;;5043155;28;20248;-28
2023/04/24 19:21:43;;;;;;;3.23;1.90;;;;;;;;;;5049245;28;20210;-28
2023/04/24 19:24:10;;;;;;;1.87;1.63;;;;;;;;;;5056783;28;20222;-26
2023/04/24 19:26:37;;;;;;;1.73;1.63;;;;;;;;;;5053730;28;20249;-26
2023/04/24 19:29:05;;;;;;;3.70;3.47;;;;;;;;;;5052672;28;20206;-29
2023/04/24 19:31:33;;;;;;;1.93;1.70;;;;;;;;;;5051348;28;20202;-30
2023/04/24 19:34:00;;;;;;;1.60;1.50;;;;;;;;;;5051486;28;20635;-27
2023/04/24 19:36:27;;;;;;;1.60;1.50;;;;;;;;;;5053081;28;20206;-27
2023/04/24 19:38:55;;;;;;;1.43;1.20;;;;;;;;;;5052142;28;20221;-26
2023/04/24 19:41:22;;;;;;;2.27;1.33;;;;;;;;;;5053629;28;20224;-28
2023/04/24 19:43:49;;;;;;;1.30;1.20;;;;;;;;;;5042061;28;20237;-26
2023/04/24 19:46:17;;;;;;;1.17;1.17;;;;;;;;;;5052203;28;20268;-30
2023/04/24 19:48:45;;;;;;;1.10;1.10;;;;;;;;;;5046084;28;20210;-30
2023/04/24 19:51:12;;;;;;;1.20;1.10;;;;;;;;;;5053885;28;20225;-30
2023/04/24 19:53:40;;;;;;;1.03;0.97;;;;;;;;;;5052001;28;20226;-29
2023/04/24 19:56:07;;;;;;;1.83;1.47;;;;;;;;;;5048405;28;20293;-26
2023/04/24 19:58:34;;;;;;;1.73;1.00;;;;;;;;;;5049267;28;20652;-27
2023/04/24 20:01:02;;;;;;;0.90;0.90;;;;;;;;;;5058480;28;20201;-26
2023/04/24 20:03:29;;;;;;;1.17;1.17;;;;;;;;;;5038531;28;20227;-28
2023/04/24 20:05:58;;;;;;;1.90;1.10;;;;;;;;;;5047052;28;20297;-29
2023/04/24 20:08:25;;;;;;;1.20;1.10;;;;;;;;;;5060478;28;20210;-29
2023/04/24 20:10:53;;;;;;;0.93;0.83;;;;;;;;;;5062989;28;20210;-28
2023/04/24 20:13:20;;;;;;;1.20;1.13;;;;;;;;;;5054476;28;20228;-27
2023/04/24 20:15:47;;;;;;;4.07;1.00;;;;;;;;;;5303577;23;20324;-30
2023/04/24 20:18:14;;;;;;;0.80;0.80;;;;;;;;;;5066226;28;20205;-34
2023/04/24 20:20:41;;;;;;;1.20;1.10;;;;;;;;;;5065298;28;20233;-32
2023/04/24 20:23:10;;;;;;;0.90;0.90;;;;;;;;;;5080526;28;20670;-33
2023/04/24 20:25:37;;;;;;;2.37;2.17;;;;;;;;;;5049353;28;20206;-34
2023/04/24 20:28:04;;;;;;;0.97;0.97;;;;;;;;;;5050656;28;20207;-36
2023/04/24 20:30:31;;;;;;;1.00;1.00;;;;;;;;;;5051423;28;20230;-32
2023/04/24 20:33:02;;;;;;;1.87;1.20;;;;;;;;;;5045928;28;20687;-34
2023/04/24 20:35:29;;;;;;;0.97;0.97;;;;;;;;;;5051744;28;20234;-33
2023/04/24 20:37:58;;;;;;;1.00;0.90;;;;;;;;;;5048870;28;20210;-33
2023/04/24 20:40:26;;;;;;;1.40;1.03;;;;;;;;;;5047751;28;20241;-35
2023/04/24 20:42:54;;;;;;;1.20;1.10;;;;;;;;;;5036533;28;20257;-31